This is the latest recevied weather packets stored in our database for station/object RN1M-13. If no packets are shown the sender has not sent any weather packets the latest 10 day(s).
| Time | Temp. | Humidity | Pressure | Rain* | Wind** | Luminosity | Snow |
|---|---|---|---|---|---|---|---|
| 1777650480 | 14.44° C | 100% | 1015.5 hPa | - | - | - | - |
| 1777649580 | 14.44° C | 100% | 1015.7 hPa | - | - | - | - |
| 1777648680 | 13.89° C | 100% | 1016 hPa | - | - | - | - |
| 1777647780 | 13.33° C | 100% | 1016 hPa | - | - | - | - |
| 1777646881 | 12.78° C | 100% | 1016.4 hPa | - | - | - | - |
| 1777645980 | 15° C | 100% | 1016.5 hPa | - | - | - | - |
| 1777645080 | 14.44° C | 100% | 1016.4 hPa | - | - | - | - |
| 1777644182 | 16.67° C | 100% | 1016.5 hPa | - | - | - | - |
| 1777643289 | 16.67° C | 100% | 1016.7 hPa | - | - | - | - |
| 1777642389 | 16.11° C | 100% | 1016.9 hPa | - | - | - | - |
| 1777641489 | 16.11° C | 100% | 1016.9 hPa | - | - | - | - |
| 1777640589 | 18.33° C | 100% | 1016.9 hPa | - | - | - | - |
| 1777639689 | 18.89° C | 100% | 1016.9 hPa | - | - | - | - |
| 1777638789 | 16.67° C | 100% | 1017.2 hPa | - | - | - | - |
| 1777637889 | 18.89° C | 100% | 1017.2 hPa | - | - | - | - |
| 1777636989 | 16.11° C | 100% | 1017.7 hPa | - | - | - | - |
| 1777636089 | 17.78° C | 100% | 1017.7 hPa | - | - | - | - |
| 1777635189 | 16.11° C | 100% | 1017.9 hPa | - | - | - | - |
| 1777634289 | 18.33° C | 100% | 1017.9 hPa | - | - | - | - |
| 1777633391 | 16.11° C | 100% | 1018.3 hPa | - | - | - | - |
| 1777632496 | 15.56° C | 100% | 1018.5 hPa | - | - | - | - |
| 1777631596 | 15° C | 100% | 1018.6 hPa | - | - | - | - |
| 1777630696 | 14.44° C | 100% | 1018.8 hPa | - | - | - | - |
| 1777629796 | 12.78° C | 100% | 1019 hPa | - | - | - | - |
| 1777628896 | 13.89° C | 100% | 1018.8 hPa | - | - | - | - |
* Rain since midnight (hover to see other rain measurements)
** Current wind speed in m/s (hover to see current wind gust speed)